createdAt,value
2022-09-06T00:00:13.185Z,8.13
2022-09-06T00:01:00.224Z,7.70
2022-09-06T00:01:47.166Z,7.87
2022-09-06T00:02:34.419Z,8.10
2022-09-06T00:03:21.412Z,7.37
2022-09-06T00:04:11.819Z,7.65
2022-09-06T00:05:01.632Z,7.80
2022-09-06T00:05:48.874Z,7.90
2022-09-06T00:06:35.783Z,7.65
2022-09-06T00:07:22.683Z,7.85
2022-09-06T00:08:09.633Z,7.72
2022-09-06T00:08:56.582Z,7.53
2022-09-06T00:09:43.895Z,7.85
2022-09-06T00:10:31.634Z,7.78
2022-09-06T00:11:19.028Z,7.90
2022-09-06T00:12:06.208Z,7.70
2022-09-06T00:12:53.034Z,7.47
2022-09-06T00:13:40.293Z,7.57
2022-09-06T00:14:27.164Z,7.80
2022-09-06T00:15:14.221Z,7.35
2022-09-06T00:16:08.685Z,8.00
2022-09-06T00:16:55.656Z,7.62
2022-09-06T00:17:45.013Z,7.47
2022-09-06T00:18:31.964Z,7.22
2022-09-06T00:19:18.955Z,7.50
2022-09-06T00:20:09.342Z,7.57
2022-09-06T00:20:56.183Z,7.90
2022-09-06T00:21:43.115Z,7.62
2022-09-06T00:22:29.914Z,7.50
2022-09-06T00:23:16.913Z,7.93
2022-09-06T00:24:04.147Z,7.72
2022-09-06T00:24:50.984Z,7.97
2022-09-06T00:25:37.866Z,8.27
2022-09-06T00:26:24.924Z,8.20
2022-09-06T00:27:11.743Z,7.80
2022-09-06T00:28:00.305Z,8.05
2022-09-06T00:28:47.466Z,8.35
2022-09-06T00:29:34.894Z,7.78
2022-09-06T00:30:21.753Z,7.95
2022-09-06T00:31:13.454Z,8.13
2022-09-06T00:32:12.894Z,8.00
2022-09-06T00:32:59.704Z,8.05
2022-09-06T00:33:46.723Z,8.20
2022-09-06T00:34:33.677Z,7.60
2022-09-06T00:35:22.085Z,7.60
2022-09-06T00:36:09.727Z,7.53
2022-09-06T00:36:56.562Z,7.65
2022-09-06T00:37:43.372Z,7.85
2022-09-06T00:38:30.274Z,7.93
2022-09-06T00:39:17.144Z,7.65
2022-09-06T00:40:04.291Z,7.45
2022-09-06T00:40:51.224Z,7.20
2022-09-06T00:41:38.044Z,7.53
2022-09-06T00:42:24.743Z,7.25
2022-09-06T00:43:11.535Z,6.85
2022-09-06T00:43:58.713Z,7.65
2022-09-06T00:44:45.624Z,7.80
2022-09-06T00:45:32.904Z,7.65
2022-09-06T00:46:24.358Z,7.10
2022-09-06T00:47:11.344Z,7.80
2022-09-06T00:48:00.182Z,7.90
2022-09-06T00:48:50.003Z,7.22
2022-09-06T00:49:44.783Z,7.87
2022-09-06T00:50:31.713Z,7.43
2022-09-06T00:51:18.955Z,7.55
2022-09-06T00:52:09.623Z,7.18
2022-09-06T00:52:56.466Z,7.68
2022-09-06T00:53:43.494Z,6.95
2022-09-06T00:54:30.564Z,7.32
2022-09-06T00:55:17.764Z,7.37
2022-09-06T00:56:05.113Z,7.28
2022-09-06T00:56:52.063Z,7.20
2022-09-06T00:57:39.553Z,7.82
2022-09-06T00:58:27.438Z,7.47
2022-09-06T00:59:15.544Z,7.12
2022-09-06T01:00:04.208Z,7.32
2022-09-06T01:00:51.395Z,7.40
2022-09-06T01:01:38.633Z,7.03
2022-09-06T01:02:26.111Z,6.65
2022-09-06T01:03:13.104Z,7.82
2022-09-06T01:04:00.165Z,7.12
2022-09-06T01:04:48.524Z,7.30
2022-09-06T01:06:02.943Z,7.07
2022-09-06T01:06:55.893Z,7.20
2022-09-06T01:07:57.195Z,7.10
2022-09-06T01:08:46.665Z,7.50
2022-09-06T01:09:48.763Z,7.12
2022-09-06T01:11:09.044Z,7.30
2022-09-06T01:12:13.924Z,6.93
2022-09-06T01:13:00.838Z,7.37
2022-09-06T01:14:11.633Z,6.93
2022-09-06T01:15:06.134Z,7.18
2022-09-06T01:16:30.873Z,7.07
2022-09-06T01:17:36.468Z,7.32
2022-09-06T01:18:36.197Z,7.28
2022-09-06T01:19:50.206Z,7.40
2022-09-06T01:20:45.993Z,6.68
2022-09-06T01:22:00.183Z,6.68
2022-09-06T01:23:14.794Z,6.90
2022-09-06T01:24:40.174Z,7.18
2022-09-06T01:25:50.924Z,7.18
2022-09-06T01:27:02.144Z,6.68
2022-09-06T01:27:48.945Z,7.18
2022-09-06T01:28:43.529Z,7.60
2022-09-06T01:29:40.097Z,7.35
2022-09-06T01:30:27.012Z,7.07
2022-09-06T01:31:22.989Z,7.07
2022-09-06T01:32:09.803Z,6.82
2022-09-06T01:33:04.013Z,7.10
2022-09-06T01:34:06.120Z,7.57
2022-09-06T01:34:57.103Z,7.37
2022-09-06T01:35:55.273Z,7.57
2022-09-06T01:37:08.955Z,6.32
2022-09-06T01:37:57.455Z,7.15
2022-09-06T01:38:44.295Z,7.20
2022-09-06T01:39:34.373Z,7.82
2022-09-06T01:40:21.183Z,7.32
2022-09-06T01:41:09.191Z,7.20
2022-09-06T01:41:56.964Z,7.03
2022-09-06T01:42:45.704Z,6.70
2022-09-06T01:43:35.823Z,7.40
2022-09-06T01:44:23.343Z,6.97
2022-09-06T01:45:14.314Z,7.22
2022-09-06T01:46:13.358Z,7.40
2022-09-06T01:47:25.303Z,6.85
2022-09-06T01:48:45.303Z,6.95
2022-09-06T01:49:47.024Z,6.70
2022-09-06T01:51:11.243Z,7.62
2022-09-06T01:52:08.284Z,6.80
2022-09-06T01:53:20.106Z,7.10
2022-09-06T01:54:33.713Z,6.85
2022-09-06T01:55:32.064Z,6.53
2022-09-06T01:56:50.735Z,6.65
2022-09-06T01:57:58.632Z,6.53
2022-09-06T01:59:11.524Z,7.05
2022-09-06T02:00:10.066Z,6.87
2022-09-06T02:01:14.843Z,6.65
2022-09-06T02:02:17.033Z,6.90
2022-09-06T02:03:25.844Z,6.90
2022-09-06T02:04:23.864Z,6.40
2022-09-06T02:05:32.971Z,6.82
2022-09-06T02:06:27.031Z,7.12
2022-09-06T02:07:19.494Z,6.97
2022-09-06T02:08:11.303Z,7.47
2022-09-06T02:09:12.133Z,7.15
2022-09-06T02:10:25.074Z,7.28
2022-09-06T02:11:14.663Z,6.75
2022-09-06T02:12:02.464Z,6.87
2022-09-06T02:12:53.867Z,6.93
2022-09-06T02:13:45.903Z,6.25
2022-09-06T02:14:51.545Z,6.85
2022-09-06T02:15:42.993Z,7.07
2022-09-06T02:16:31.119Z,7.20
2022-09-06T02:17:20.623Z,6.78
2022-09-06T02:18:14.124Z,7.37
2022-09-06T02:19:09.725Z,6.60
2022-09-06T02:20:24.222Z,6.90
2022-09-06T02:21:13.723Z,6.50
2022-09-06T02:22:03.143Z,7.00
2022-09-06T02:22:50.983Z,6.15
2022-09-06T02:23:40.655Z,6.78
2022-09-06T02:24:31.426Z,6.90
2022-09-06T02:25:27.873Z,6.95
2022-09-06T02:26:18.832Z,7.40
2022-09-06T02:27:05.713Z,6.68
2022-09-06T02:27:52.932Z,7.68
2022-09-06T02:28:40.106Z,6.87
2022-09-06T02:29:27.653Z,6.70
2022-09-06T02:30:14.524Z,6.97
2022-09-06T02:31:04.071Z,7.28
2022-09-06T02:32:06.828Z,6.82
2022-09-06T02:32:59.324Z,6.85
2022-09-06T02:33:46.703Z,6.87
2022-09-06T02:34:33.534Z,7.50
2022-09-06T02:35:20.464Z,6.65
2022-09-06T02:36:09.483Z,7.03
2022-09-06T02:36:56.524Z,6.68
2022-09-06T02:37:44.175Z,7.00
2022-09-06T02:38:31.537Z,6.80
2022-09-06T02:39:18.343Z,6.35
2022-09-06T02:40:06.289Z,6.60
2022-09-06T02:40:54.514Z,6.82
2022-09-06T02:41:42.654Z,6.45
2022-09-06T02:42:29.524Z,7.00
2022-09-06T02:43:16.375Z,7.07
2022-09-06T02:44:03.564Z,6.87
2022-09-06T02:44:50.523Z,6.93
2022-09-06T02:45:37.828Z,7.00
2022-09-06T02:46:24.973Z,6.68
2022-09-06T02:47:11.923Z,6.45
2022-09-06T02:47:58.783Z,6.65
2022-09-06T02:48:46.868Z,6.87
2022-09-06T02:49:33.708Z,7.22
2022-09-06T02:50:20.554Z,6.82
2022-09-06T02:51:08.905Z,7.37
2022-09-06T02:51:55.951Z,6.93
2022-09-06T02:52:43.022Z,6.87
2022-09-06T02:53:29.904Z,8.20
2022-09-06T02:54:16.824Z,7.00
2022-09-06T02:55:04.739Z,6.93
2022-09-06T02:55:51.665Z,6.72
2022-09-06T02:56:38.582Z,7.05
2022-09-06T02:57:25.305Z,6.68
2022-09-06T02:58:12.294Z,6.85
2022-09-06T02:58:59.215Z,6.90
2022-09-06T02:59:46.483Z,6.80
2022-09-06T03:00:33.924Z,6.90
2022-09-06T03:01:20.881Z,7.25
2022-09-06T03:02:07.987Z,7.10
2022-09-06T03:02:56.023Z,7.22
2022-09-06T03:03:42.983Z,7.00
2022-09-06T03:04:29.861Z,7.03
2022-09-06T03:05:16.944Z,6.85
2022-09-06T03:06:03.864Z,7.07
2022-09-06T03:06:50.664Z,6.90
2022-09-06T03:07:37.553Z,7.28
2022-09-06T03:08:33.614Z,7.35
2022-09-06T03:09:20.773Z,7.20
2022-09-06T03:10:07.946Z,7.07
2022-09-06T03:10:56.496Z,6.78
2022-09-06T03:11:43.343Z,6.43
2022-09-06T03:12:30.176Z,6.60
2022-09-06T03:13:17.311Z,6.72
2022-09-06T03:14:04.217Z,7.10
2022-09-06T03:14:54.818Z,6.93
2022-09-06T03:15:42.024Z,6.53
2022-09-06T03:16:28.925Z,6.45
2022-09-06T03:17:15.703Z,6.62
2022-09-06T03:18:02.603Z,6.78
2022-09-06T03:18:49.484Z,6.75
2022-09-06T03:19:36.224Z,6.72
2022-09-06T03:20:23.033Z,7.30
2022-09-06T03:21:10.142Z,6.72
2022-09-06T03:21:56.903Z,6.53
2022-09-06T03:22:43.711Z,6.93
2022-09-06T03:23:30.524Z,6.30
2022-09-06T03:24:17.532Z,7.22
2022-09-06T03:25:04.604Z,6.43
2022-09-06T03:25:51.683Z,6.53
2022-09-06T03:26:38.465Z,6.53
2022-09-06T03:27:25.304Z,6.55
2022-09-06T03:28:13.055Z,7.12
2022-09-06T03:28:59.893Z,6.72
2022-09-06T03:29:46.764Z,7.00
2022-09-06T03:30:33.690Z,6.70
2022-09-06T03:31:20.606Z,6.55
2022-09-06T03:32:07.394Z,6.70
2022-09-06T03:32:54.272Z,7.50
2022-09-06T03:33:41.207Z,6.25
2022-09-06T03:34:28.004Z,6.72
2022-09-06T03:35:15.418Z,7.10
2022-09-06T03:36:03.373Z,7.15
2022-09-06T03:36:50.274Z,6.87
2022-09-06T03:37:37.272Z,6.60
2022-09-06T03:38:25.635Z,6.40
2022-09-06T03:39:12.564Z,6.57
2022-09-06T03:40:00.066Z,6.68
2022-09-06T03:40:50.665Z,6.57
2022-09-06T03:42:26.816Z,6.35
2022-09-06T03:43:15.038Z,6.57
2022-09-06T03:44:02.224Z,7.18
2022-09-06T03:44:49.074Z,6.45
2022-09-06T03:45:36.023Z,6.43
2022-09-06T03:46:23.018Z,6.37
2022-09-06T03:47:09.933Z,6.68
2022-09-06T03:47:56.752Z,6.32
2022-09-06T03:48:43.584Z,7.10
2022-09-06T03:49:30.495Z,6.70
2022-09-06T03:50:17.514Z,6.70
2022-09-06T03:51:04.356Z,6.78
2022-09-06T03:51:51.291Z,6.78
2022-09-06T03:52:38.083Z,6.62
2022-09-06T03:53:26.540Z,6.28
2022-09-06T03:54:14.066Z,6.57
2022-09-06T03:55:00.883Z,6.80
2022-09-06T03:55:52.884Z,6.65
2022-09-06T03:56:39.723Z,6.70
2022-09-06T03:57:26.713Z,6.72
2022-09-06T03:58:14.404Z,6.22
2022-09-06T03:59:01.283Z,6.70
2022-09-06T03:59:48.324Z,6.65
2022-09-06T04:00:35.122Z,6.40
2022-09-06T04:01:22.004Z,6.53
2022-09-06T04:02:09.202Z,6.57
2022-09-06T04:03:00.986Z,6.45
2022-09-06T04:03:48.496Z,6.62
2022-09-06T04:04:35.394Z,7.00
2022-09-06T04:05:22.224Z,6.10
2022-09-06T04:06:09.564Z,6.45
2022-09-06T04:06:56.473Z,7.15
2022-09-06T04:07:43.834Z,6.60
2022-09-06T04:08:32.716Z,6.90
2022-09-06T04:09:19.514Z,6.55
2022-09-06T04:10:07.194Z,6.68
2022-09-06T04:10:55.037Z,6.70
2022-09-06T04:11:45.026Z,6.85
2022-09-06T04:12:32.015Z,6.70
2022-09-06T04:13:18.859Z,6.50
2022-09-06T04:14:05.765Z,6.57
2022-09-06T04:14:52.692Z,6.85
2022-09-06T04:15:39.473Z,6.20
2022-09-06T04:16:26.308Z,6.20
2022-09-06T04:17:14.863Z,6.53
2022-09-06T04:18:04.926Z,6.35
2022-09-06T04:18:54.284Z,6.40
2022-09-06T04:19:41.194Z,6.10
2022-09-06T04:20:28.003Z,6.40
2022-09-06T04:21:14.804Z,6.37
2022-09-06T04:22:01.713Z,7.18
2022-09-06T04:22:48.574Z,7.40
2022-09-06T04:23:39.791Z,7.32
2022-09-06T04:24:26.883Z,7.65
2022-09-06T04:25:14.173Z,6.93
2022-09-06T04:26:01.055Z,6.97
2022-09-06T04:26:47.843Z,6.22
2022-09-06T04:27:35.151Z,6.53
2022-09-06T04:28:22.800Z,6.35
2022-09-06T04:29:09.645Z,6.20
2022-09-06T04:29:56.864Z,6.95
2022-09-06T04:30:43.938Z,6.80
2022-09-06T04:31:30.827Z,7.93
2022-09-06T04:32:17.713Z,7.22
2022-09-06T04:33:04.613Z,8.45
2022-09-06T04:33:51.415Z,7.85
2022-09-06T04:34:38.206Z,7.43
2022-09-06T04:35:25.087Z,7.32
2022-09-06T04:36:12.799Z,7.47
2022-09-06T04:36:59.664Z,6.95
2022-09-06T04:37:46.546Z,7.95
2022-09-06T04:38:42.188Z,7.37
2022-09-06T04:39:29.036Z,7.30
2022-09-06T04:40:16.083Z,7.12
2022-09-06T04:41:03.423Z,7.10
2022-09-06T04:41:50.373Z,7.30
2022-09-06T04:42:37.103Z,6.93
2022-09-06T04:43:24.453Z,6.68
2022-09-06T04:44:11.226Z,6.72
2022-09-06T04:44:58.214Z,7.20
2022-09-06T04:45:45.421Z,7.22
2022-09-06T04:46:32.323Z,6.90
2022-09-06T04:47:19.623Z,6.65
2022-09-06T04:48:06.482Z,6.43
2022-09-06T04:48:55.185Z,6.30
2022-09-06T04:49:42.706Z,6.35
2022-09-06T04:50:29.744Z,6.22
2022-09-06T04:51:17.314Z,6.40
2022-09-06T04:52:04.624Z,6.68
2022-09-06T04:52:51.503Z,6.70
2022-09-06T04:53:38.306Z,7.10
2022-09-06T04:54:25.225Z,7.25
2022-09-06T04:55:12.256Z,7.50
2022-09-06T04:55:59.214Z,7.05
2022-09-06T04:56:46.124Z,7.53
2022-09-06T04:57:32.916Z,6.70
2022-09-06T04:58:19.785Z,6.82
2022-09-06T04:59:06.674Z,6.80
2022-09-06T04:59:53.614Z,6.97
2022-09-06T05:00:41.961Z,6.68
2022-09-06T05:01:28.867Z,6.75
2022-09-06T05:02:15.888Z,7.87
2022-09-06T05:03:02.873Z,7.35
2022-09-06T05:03:52.173Z,7.43
2022-09-06T05:04:40.876Z,6.87
2022-09-06T05:05:27.743Z,7.07
2022-09-06T05:06:25.742Z,6.78
2022-09-06T05:07:12.634Z,6.20
2022-09-06T05:07:59.503Z,6.85
2022-09-06T05:08:46.703Z,6.45
2022-09-06T05:09:34.136Z,6.60
2022-09-06T05:10:21.634Z,6.62
2022-09-06T05:11:09.485Z,7.57
2022-09-06T05:11:59.814Z,7.28
2022-09-06T05:12:53.895Z,6.72
2022-09-06T05:13:41.294Z,6.93
2022-09-06T05:14:29.004Z,6.12
2022-09-06T05:15:17.333Z,6.70
2022-09-06T05:16:05.974Z,6.45
2022-09-06T05:16:53.351Z,6.80
2022-09-06T05:17:40.204Z,7.28
2022-09-06T05:18:27.142Z,6.85
2022-09-06T05:19:14.184Z,6.62
2022-09-06T05:20:01.053Z,6.90
2022-09-06T05:20:54.505Z,6.55
2022-09-06T05:21:41.283Z,6.40
2022-09-06T05:22:28.164Z,6.18
2022-09-06T05:23:15.014Z,6.25
2022-09-06T05:24:48.854Z,6.35
2022-09-06T05:25:35.703Z,5.93
2022-09-06T05:26:22.814Z,6.22
2022-09-06T05:27:09.712Z,6.15
2022-09-06T05:27:56.546Z,6.15
2022-09-06T05:28:43.522Z,6.82
2022-09-06T05:29:30.992Z,5.60
2022-09-06T05:30:18.506Z,5.90
2022-09-06T05:31:10.304Z,6.20
2022-09-06T05:31:57.666Z,6.00
2022-09-06T05:32:44.693Z,5.90
2022-09-06T05:33:31.504Z,6.25
2022-09-06T05:34:18.363Z,5.82
2022-09-06T05:35:05.404Z,5.55
2022-09-06T05:35:52.184Z,5.60
2022-09-06T05:36:39.256Z,6.07
2022-09-06T05:37:26.123Z,6.00
2022-09-06T05:38:12.974Z,5.43
2022-09-06T05:39:00.000Z,5.78
2022-09-06T05:39:47.008Z,5.75
2022-09-06T05:40:33.914Z,5.70
2022-09-06T05:41:21.914Z,5.65
2022-09-06T05:42:08.937Z,5.80
2022-09-06T05:42:55.746Z,5.32
2022-09-06T05:43:42.594Z,5.30
2022-09-06T05:44:29.404Z,5.12
2022-09-06T05:45:17.220Z,5.80
2022-09-06T05:46:04.301Z,5.18
2022-09-06T05:46:51.287Z,5.35
2022-09-06T05:47:38.654Z,5.53
2022-09-06T05:48:25.563Z,5.22
2022-09-06T05:49:13.154Z,5.30
2022-09-06T05:50:00.159Z,5.65
2022-09-06T05:50:46.951Z,5.55
2022-09-06T05:51:33.834Z,5.78
2022-09-06T05:52:20.716Z,5.45
2022-09-06T05:53:07.593Z,5.70
2022-09-06T05:53:54.497Z,5.82
2022-09-06T05:54:41.324Z,5.45
2022-09-06T05:55:28.223Z,5.30
2022-09-06T05:56:15.736Z,5.82
2022-09-06T05:57:02.744Z,5.45
2022-09-06T05:57:49.552Z,5.53
2022-09-06T05:58:36.733Z,5.50
2022-09-06T05:59:23.584Z,5.70
2022-09-06T06:00:12.365Z,5.43
2022-09-06T06:01:13.943Z,6.12
2022-09-06T06:02:03.323Z,5.55
2022-09-06T06:02:53.550Z,5.62
2022-09-06T06:03:40.544Z,5.22
2022-09-06T06:04:27.362Z,5.53
2022-09-06T06:05:14.540Z,5.57
2022-09-06T06:06:01.473Z,5.53
2022-09-06T06:06:49.496Z,5.57
2022-09-06T06:07:36.325Z,5.68
2022-09-06T06:08:23.367Z,5.12
2022-09-06T06:09:10.293Z,5.35
2022-09-06T06:09:57.215Z,5.22
2022-09-06T06:10:44.126Z,5.30
2022-09-06T06:11:31.744Z,5.00
2022-09-06T06:12:18.527Z,5.25
2022-09-06T06:13:05.495Z,5.12
2022-09-06T06:13:52.974Z,5.20
2022-09-06T06:14:39.914Z,5.00
2022-09-06T06:15:26.734Z,4.97
2022-09-06T06:16:16.826Z,5.45
2022-09-06T06:17:04.084Z,4.93
2022-09-06T06:17:50.924Z,6.15
2022-09-06T06:18:38.223Z,6.43
2022-09-06T06:19:26.834Z,6.28
2022-09-06T06:20:13.883Z,6.25
2022-09-06T06:21:15.953Z,5.65
2022-09-06T06:22:02.804Z,6.12
2022-09-06T06:22:49.624Z,6.70
2022-09-06T06:23:36.456Z,7.15
2022-09-06T06:24:23.203Z,6.90
2022-09-06T06:25:12.481Z,6.95
2022-09-06T06:25:59.544Z,6.97
2022-09-06T06:26:46.357Z,7.00
2022-09-06T06:27:35.044Z,6.80
2022-09-06T06:28:21.983Z,7.20
2022-09-06T06:29:09.823Z,7.12
2022-09-06T06:29:57.094Z,7.50
2022-09-06T06:30:44.034Z,6.87
2022-09-06T06:31:32.437Z,7.93
2022-09-06T06:32:19.274Z,9.02
2022-09-06T06:33:06.144Z,7.43
2022-09-06T06:33:53.275Z,7.15
2022-09-06T06:34:40.078Z,8.23
2022-09-06T06:35:26.873Z,6.62
2022-09-06T06:36:13.655Z,7.15
2022-09-06T06:37:00.666Z,7.20
2022-09-06T06:37:47.524Z,7.68
2022-09-06T06:38:36.423Z,6.97
2022-09-06T06:39:23.313Z,6.70
2022-09-06T06:40:10.800Z,7.80
2022-09-06T06:41:01.040Z,8.40
2022-09-06T06:41:51.354Z,7.37
2022-09-06T06:42:38.195Z,8.00
2022-09-06T06:43:25.174Z,7.30
2022-09-06T06:44:12.020Z,7.90
2022-09-06T06:44:59.034Z,7.60
2022-09-06T06:45:50.187Z,8.40
2022-09-06T06:46:38.254Z,8.02
2022-09-06T06:47:25.676Z,8.13
2022-09-06T06:48:12.678Z,7.50
2022-09-06T06:48:59.812Z,7.80
2022-09-06T06:49:46.841Z,8.35
2022-09-06T06:50:33.654Z,7.45
2022-09-06T06:51:21.713Z,7.60
2022-09-06T06:52:08.553Z,7.45
2022-09-06T06:52:55.355Z,7.00
2022-09-06T06:53:42.406Z,5.50
2022-09-06T06:54:29.993Z,6.90
2022-09-06T06:55:16.834Z,6.53
2022-09-06T06:56:30.752Z,6.65
2022-09-06T06:57:17.844Z,7.18
2022-09-06T06:58:04.734Z,7.03
2022-09-06T06:58:53.714Z,6.37
2022-09-06T06:59:40.613Z,6.72
2022-09-06T07:00:28.345Z,6.60
2022-09-06T07:01:16.515Z,6.12
2022-09-06T07:02:03.565Z,5.53
2022-09-06T07:02:50.504Z,5.72
2022-09-06T07:03:37.541Z,6.90
2022-09-06T07:04:24.456Z,6.97
2022-09-06T07:06:19.135Z,7.50
2022-09-06T07:08:13.933Z,6.80
2022-09-06T07:09:01.064Z,6.80
2022-09-06T07:10:54.905Z,6.95
2022-09-06T07:11:42.244Z,6.80
2022-09-06T07:12:29.186Z,6.70
2022-09-06T07:13:16.013Z,7.00
2022-09-06T07:14:02.906Z,6.93
2022-09-06T07:14:49.773Z,6.95
2022-09-06T07:15:36.618Z,7.30
2022-09-06T07:16:24.613Z,7.22
2022-09-06T07:17:11.561Z,6.90
2022-09-06T07:17:58.534Z,7.15
2022-09-06T07:18:46.191Z,8.13
2022-09-06T07:21:46.885Z,6.60
2022-09-06T07:22:33.816Z,6.32
2022-09-06T07:24:27.435Z,6.50
2022-09-06T07:25:19.072Z,6.87
2022-09-06T07:26:09.076Z,6.87
2022-09-06T07:28:07.284Z,7.20
2022-09-06T07:28:59.227Z,7.15
2022-09-06T07:29:46.133Z,6.70
2022-09-06T07:30:35.486Z,7.30
2022-09-06T07:32:31.350Z,7.05
2022-09-06T07:33:19.071Z,7.30
2022-09-06T07:34:06.048Z,7.05
2022-09-06T07:34:52.947Z,8.00
2022-09-06T07:35:39.792Z,7.62
2022-09-06T07:36:26.873Z,7.07
2022-09-06T07:37:13.682Z,7.70
2022-09-06T07:38:01.345Z,7.37
2022-09-06T07:38:50.189Z,7.53
2022-09-06T07:39:37.329Z,6.80
2022-09-06T07:40:25.668Z,6.32
2022-09-06T07:41:12.758Z,7.18
2022-09-06T07:41:59.704Z,7.12
2022-09-06T07:42:57.117Z,7.93
2022-09-06T07:43:44.905Z,7.53
2022-09-06T07:44:31.746Z,7.95
2022-09-06T07:45:19.274Z,7.53
2022-09-06T07:46:10.991Z,7.60
2022-09-06T07:48:04.918Z,7.90
2022-09-06T07:48:51.976Z,7.95
2022-09-06T07:49:39.405Z,8.02
2022-09-06T07:51:30.586Z,7.78
2022-09-06T07:53:30.443Z,8.23
2022-09-06T07:54:33.322Z,8.57
2022-09-06T07:55:20.280Z,7.85
2022-09-06T07:56:09.373Z,8.10
2022-09-06T07:56:56.205Z,7.70
2022-09-06T07:57:43.041Z,7.72
2022-09-06T07:58:30.622Z,8.02
2022-09-06T07:59:17.500Z,7.47
2022-09-06T08:00:05.408Z,7.57
2022-09-06T08:00:52.254Z,7.53
2022-09-06T08:01:39.611Z,7.30
2022-09-06T08:02:26.575Z,7.68
2022-09-06T08:03:13.478Z,8.38
2022-09-06T08:04:05.874Z,7.47
2022-09-06T08:04:52.774Z,7.45
2022-09-06T08:09:02.924Z,7.68
2022-09-06T08:09:49.742Z,8.18
2022-09-06T08:10:36.561Z,7.80
2022-09-06T08:11:25.795Z,7.50
2022-09-06T08:12:12.753Z,7.28
2022-09-06T08:12:59.556Z,7.47
2022-09-06T08:13:50.536Z,7.37
2022-09-06T08:14:37.418Z,7.68
2022-09-06T08:15:24.285Z,7.75
2022-09-06T08:16:12.769Z,7.43
2022-09-06T08:17:00.091Z,8.07
2022-09-06T08:17:51.288Z,8.02
2022-09-06T08:18:38.383Z,7.50
2022-09-06T08:19:25.392Z,7.90
2022-09-06T08:20:13.031Z,7.65
2022-09-06T08:21:12.748Z,7.68
2022-09-06T08:21:59.829Z,7.32
2022-09-06T08:22:46.647Z,8.43
2022-09-06T08:23:33.507Z,7.40
2022-09-06T08:24:20.787Z,7.87
2022-09-06T08:25:08.116Z,7.90
2022-09-06T08:25:58.849Z,7.55
2022-09-06T08:26:45.953Z,7.70
2022-09-06T08:27:32.824Z,7.97
2022-09-06T08:28:19.632Z,7.35
2022-09-06T08:29:07.851Z,8.45
2022-09-06T08:29:54.707Z,8.43
2022-09-06T08:30:41.597Z,8.07
2022-09-06T08:31:30.281Z,8.20
2022-09-06T08:32:17.284Z,7.97
2022-09-06T08:33:04.112Z,8.63
2022-09-06T08:33:51.953Z,8.10
2022-09-06T08:34:39.072Z,8.88
2022-09-06T08:35:25.844Z,8.15
2022-09-06T08:36:13.938Z,8.00
2022-09-06T08:37:00.769Z,8.18
2022-09-06T08:37:47.533Z,8.27
2022-09-06T08:38:34.934Z,7.93
2022-09-06T08:39:21.994Z,8.00
2022-09-06T08:40:09.382Z,8.00
2022-09-06T08:41:08.094Z,8.10
2022-09-06T08:42:03.946Z,8.45
2022-09-06T08:42:51.122Z,7.78
2022-09-06T08:43:38.895Z,8.02
2022-09-06T08:44:57.034Z,7.90
2022-09-06T08:45:45.210Z,8.30
2022-09-06T08:46:59.823Z,8.40
2022-09-06T08:47:46.762Z,8.43
2022-09-06T08:48:37.278Z,7.85
2022-09-06T08:50:14.470Z,8.52
2022-09-06T08:51:27.721Z,8.38
2022-09-06T08:53:13.652Z,8.43
2022-09-06T08:54:09.602Z,8.68
2022-09-06T08:55:17.928Z,7.55
2022-09-06T08:56:13.576Z,8.45
2022-09-06T08:57:22.214Z,8.00
2022-09-06T08:58:55.101Z,7.62
2022-09-06T08:59:43.313Z,8.55
2022-09-06T09:00:31.217Z,8.15
2022-09-06T09:01:23.340Z,8.63
2022-09-06T09:02:19.353Z,8.25
2022-09-06T09:03:16.788Z,7.97
2022-09-06T09:04:05.595Z,7.60
2022-09-06T09:04:56.233Z,9.30
2022-09-06T09:05:44.161Z,8.07
2022-09-06T09:06:32.966Z,7.85
2022-09-06T09:07:48.190Z,7.90
2022-09-06T09:09:02.335Z,8.50
2022-09-06T09:09:49.871Z,8.10
2022-09-06T09:10:42.958Z,8.02
2022-09-06T09:11:30.145Z,7.87
2022-09-06T09:12:18.145Z,8.73
2022-09-06T09:13:07.520Z,7.70
2022-09-06T09:14:09.271Z,7.60
2022-09-06T09:15:01.554Z,7.57
2022-09-06T09:15:48.495Z,8.05
2022-09-06T09:16:35.573Z,7.87
2022-09-06T09:17:28.311Z,7.53
2022-09-06T09:18:18.111Z,7.62
2022-09-06T09:19:05.784Z,8.02
2022-09-06T09:19:52.953Z,7.37
2022-09-06T09:20:40.072Z,7.60
2022-09-06T09:21:31.180Z,7.32
2022-09-06T09:22:19.717Z,7.15
2022-09-06T09:23:06.779Z,7.50
2022-09-06T09:23:55.897Z,6.53
2022-09-06T09:24:42.973Z,7.30
2022-09-06T09:25:32.468Z,7.32
2022-09-06T09:26:20.603Z,7.20
2022-09-06T09:27:11.369Z,6.65
2022-09-06T09:27:58.762Z,7.30
2022-09-06T09:29:08.759Z,6.60
2022-09-06T09:31:07.292Z,6.50
2022-09-06T09:31:55.513Z,7.22
2022-09-06T09:32:45.397Z,7.43
2022-09-06T09:33:39.069Z,7.12
2022-09-06T09:34:33.450Z,6.93
2022-09-06T09:35:34.248Z,6.65
2022-09-06T09:36:21.610Z,7.00
2022-09-06T09:38:40.227Z,6.53
2022-09-06T09:39:35.170Z,6.20
2022-09-06T09:40:25.212Z,6.00
2022-09-06T09:41:28.058Z,6.40
2022-09-06T09:42:25.119Z,6.82
2022-09-06T09:43:16.619Z,6.40
2022-09-06T09:44:06.205Z,6.28
2022-09-06T09:44:53.203Z,6.37
2022-09-06T09:45:40.078Z,6.22
2022-09-06T09:46:26.954Z,6.28
2022-09-06T09:47:28.763Z,6.72
2022-09-06T09:48:20.787Z,6.40
2022-09-06T09:49:13.735Z,6.28
2022-09-06T09:50:00.570Z,6.75
2022-09-06T09:50:47.942Z,6.22
2022-09-06T09:51:36.891Z,6.37
2022-09-06T09:52:29.596Z,6.25
2022-09-06T09:53:21.671Z,5.80
2022-09-06T09:54:11.472Z,5.45
2022-09-06T09:55:01.741Z,5.57
2022-09-06T09:55:55.829Z,5.78
2022-09-06T09:56:53.192Z,5.95
2022-09-06T09:57:48.424Z,5.70
2022-09-06T09:58:36.260Z,5.95
2022-09-06T09:59:42.961Z,5.93
2022-09-06T10:00:40.710Z,5.65
2022-09-06T10:01:33.803Z,6.07
2022-09-06T10:02:20.474Z,6.00
2022-09-06T10:03:13.056Z,5.65
2022-09-06T10:05:17.594Z,6.22
2022-09-06T10:06:05.026Z,6.00
2022-09-06T10:07:14.372Z,6.55
2022-09-06T10:08:01.236Z,5.93
2022-09-06T10:08:48.150Z,5.85
2022-09-06T10:09:40.823Z,6.03
2022-09-06T10:10:29.298Z,6.10
2022-09-06T10:11:16.101Z,5.57
2022-09-06T10:12:03.495Z,5.43
2022-09-06T10:13:33.278Z,5.80
2022-09-06T10:14:33.255Z,5.60
2022-09-06T10:15:34.743Z,5.70
2022-09-06T10:16:42.005Z,5.97
2022-09-06T10:17:30.890Z,6.12
2022-09-06T10:18:32.556Z,6.05
2022-09-06T10:19:43.184Z,5.90
2022-09-06T10:21:24.292Z,5.60
2022-09-06T10:22:34.195Z,5.28
2022-09-06T10:25:15.497Z,5.35
2022-09-06T10:26:02.250Z,5.32
2022-09-06T10:26:53.830Z,5.18
2022-09-06T10:28:15.460Z,4.85
2022-09-06T10:29:07.275Z,5.22
2022-09-06T10:30:04.690Z,5.40
2022-09-06T10:31:06.667Z,5.50
2022-09-06T10:32:25.678Z,5.12
2022-09-06T10:33:50.402Z,6.25
2022-09-06T10:35:09.530Z,5.30
2022-09-06T10:35:58.097Z,4.72
2022-09-06T10:37:23.366Z,5.30
2022-09-06T10:38:36.905Z,5.20
2022-09-06T10:39:39.431Z,5.03
2022-09-06T10:40:47.742Z,4.82
2022-09-06T10:41:43.543Z,4.80
2022-09-06T10:42:48.933Z,4.70
2022-09-06T10:44:14.234Z,5.25
2022-09-06T10:45:06.839Z,4.72
2022-09-06T10:46:02.120Z,5.03
2022-09-06T10:46:52.879Z,4.95
2022-09-06T10:47:56.363Z,4.90
2022-09-06T10:48:45.972Z,5.12
2022-09-06T10:49:34.255Z,4.87
2022-09-06T10:50:22.610Z,4.93
2022-09-06T10:51:33.824Z,5.05
2022-09-06T10:52:28.811Z,4.90
2022-09-06T10:53:24.260Z,4.93
2022-09-06T10:54:12.592Z,5.28
2022-09-06T10:55:05.517Z,5.00
2022-09-06T10:56:03.370Z,4.70
2022-09-06T10:57:01.031Z,5.20
2022-09-06T11:00:19.995Z,5.15
2022-09-06T11:01:08.804Z,4.80
2022-09-06T11:02:11.003Z,4.97
2022-09-06T11:05:53.626Z,4.90
2022-09-06T11:06:45.815Z,4.70
2022-09-06T11:07:37.175Z,4.68
2022-09-06T11:08:58.438Z,4.65
2022-09-06T11:09:47.836Z,4.60
2022-09-06T11:10:40.346Z,4.87
2022-09-06T11:11:35.749Z,4.80
2022-09-06T11:12:53.542Z,4.50
2022-09-06T11:13:40.294Z,4.90
2022-09-06T11:14:27.822Z,4.70
2022-09-06T11:15:16.290Z,5.00
2022-09-06T11:16:14.251Z,4.68
2022-09-06T11:17:09.207Z,4.68
2022-09-06T11:18:18.779Z,4.62
2022-09-06T11:19:17.711Z,4.65
2022-09-06T11:20:23.341Z,4.72
2022-09-06T11:21:34.742Z,4.60
2022-09-06T11:22:38.480Z,5.05
2022-09-06T11:23:31.258Z,4.80
2022-09-06T11:24:50.016Z,5.07
2022-09-06T11:26:07.055Z,4.70
2022-09-06T11:27:12.494Z,4.62
2022-09-06T11:28:00.745Z,4.55
2022-09-06T11:28:55.901Z,4.90
2022-09-06T11:29:45.833Z,4.78
2022-09-06T11:30:32.946Z,4.70
2022-09-06T11:32:43.655Z,4.60
2022-09-06T11:33:40.009Z,4.82
2022-09-06T11:34:37.202Z,5.05
2022-09-06T11:35:28.844Z,4.93
2022-09-06T11:36:33.658Z,4.70
2022-09-06T11:37:44.186Z,4.60
2022-09-06T11:38:31.160Z,4.70
2022-09-06T11:43:17.725Z,4.90
2022-09-06T11:44:04.987Z,4.60
2022-09-06T11:44:54.711Z,4.95
2022-09-06T11:46:01.798Z,4.90
2022-09-06T11:46:48.879Z,4.70
2022-09-06T11:47:43.847Z,4.97
2022-09-06T11:48:37.295Z,4.93
2022-09-06T11:49:32.009Z,4.80
2022-09-06T11:50:21.844Z,4.87
2022-09-06T11:51:11.296Z,4.80
2022-09-06T11:51:58.242Z,4.63
2022-09-06T11:53:17.219Z,4.80
2022-09-06T11:54:22.000Z,4.57